createdAt,value
2017-12-13T00:00:34.772Z,4.09
2017-12-13T00:03:03.251Z,4.07
2017-12-13T00:05:31.666Z,4.06
2017-12-13T00:08:00.080Z,4.36
2017-12-13T00:10:28.465Z,4.36
2017-12-13T00:12:56.826Z,4.16
2017-12-13T00:15:25.187Z,4.15
2017-12-13T00:17:54.304Z,4.01
2017-12-13T00:20:23.090Z,4.27
2017-12-13T00:22:51.471Z,4.12
2017-12-13T00:25:19.900Z,4.10
2017-12-13T00:27:48.387Z,4.35
2017-12-13T00:30:16.840Z,4.36
2017-12-13T00:32:45.285Z,4.26
2017-12-13T00:35:13.737Z,4.43
2017-12-13T00:37:42.330Z,4.46
2017-12-13T00:40:11.855Z,4.02
2017-12-13T00:42:40.752Z,3.87
2017-12-13T00:45:09.535Z,3.96
2017-12-13T00:47:38.072Z,4.28
2017-12-13T00:50:10.365Z,4.06
2017-12-13T00:52:38.812Z,4.10
2017-12-13T00:55:07.324Z,4.14
2017-12-13T00:57:35.822Z,3.97
2017-12-13T01:00:05.211Z,3.93
2017-12-13T01:02:34.576Z,4.27
2017-12-13T01:05:03.298Z,4.23
2017-12-13T01:07:31.890Z,4.23
2017-12-13T01:10:01.111Z,4.23
2017-12-13T01:12:29.562Z,4.54
2017-12-13T01:14:58.042Z,4.55
2017-12-13T01:17:26.480Z,4.66
2017-12-13T01:19:55.669Z,4.47
2017-12-13T01:22:24.102Z,3.86
2017-12-13T01:24:52.585Z,4.01
2017-12-13T01:27:22.138Z,3.95
2017-12-13T01:29:50.520Z,3.99
2017-12-13T01:32:19.038Z,4.05
2017-12-13T01:34:47.537Z,4.08
2017-12-13T01:37:15.914Z,3.72
2017-12-13T01:39:44.349Z,4.13
2017-12-13T01:42:12.878Z,4.24
2017-12-13T01:44:41.341Z,3.97
2017-12-13T01:47:10.502Z,3.92
2017-12-13T01:49:38.999Z,4.05
2017-12-13T01:52:07.500Z,4.29
2017-12-13T01:54:35.904Z,4.04
2017-12-13T01:57:04.493Z,4.16
2017-12-13T01:59:32.997Z,4.36
2017-12-13T02:02:01.486Z,4.23
2017-12-13T02:04:29.914Z,4.30
2017-12-13T02:06:58.386Z,4.63
2017-12-13T02:09:26.829Z,4.46
2017-12-13T02:11:55.499Z,4.21
2017-12-13T02:14:24.783Z,4.44
2017-12-13T02:16:53.160Z,4.44
2017-12-13T02:19:21.663Z,4.57
2017-12-13T02:21:50.117Z,4.57
2017-12-13T02:24:18.611Z,4.82
2017-12-13T02:26:47.027Z,4.56
2017-12-13T02:29:15.551Z,4.31
2017-12-13T02:31:43.962Z,4.21
2017-12-13T02:34:13.742Z,4.57
2017-12-13T02:36:42.261Z,4.26
2017-12-13T02:39:10.645Z,4.34
2017-12-13T02:41:39.931Z,4.10
2017-12-13T02:44:08.377Z,4.00
2017-12-13T02:46:37.614Z,4.12
2017-12-13T02:49:06.087Z,4.19
2017-12-13T02:51:34.500Z,4.05
2017-12-13T02:54:02.902Z,4.05
2017-12-13T02:56:31.855Z,3.95
2017-12-13T02:59:01.001Z,3.86
2017-12-13T03:01:29.525Z,3.70
2017-12-13T03:03:57.981Z,3.62
2017-12-13T03:06:26.488Z,3.73
2017-12-13T03:08:54.969Z,3.67
2017-12-13T03:11:23.605Z,3.65
2017-12-13T03:13:52.138Z,3.72
2017-12-13T03:16:20.523Z,3.91
2017-12-13T03:18:50.227Z,3.65
2017-12-13T03:21:18.702Z,3.57
2017-12-13T03:23:47.177Z,3.58
2017-12-13T03:26:15.773Z,3.68
2017-12-13T03:28:44.277Z,3.92
2017-12-13T03:31:12.629Z,3.65
2017-12-13T03:33:42.140Z,3.56
2017-12-13T03:36:10.624Z,3.51
2017-12-13T03:38:39.107Z,3.57
2017-12-13T03:41:07.617Z,3.49
2017-12-13T03:43:36.863Z,3.50
2017-12-13T03:46:05.269Z,3.53
2017-12-13T03:48:34.578Z,3.33
2017-12-13T03:51:03.036Z,3.27
2017-12-13T03:53:31.531Z,3.13
2017-12-13T03:56:00.119Z,3.21
2017-12-13T03:58:28.585Z,3.22
2017-12-13T04:00:57.128Z,3.12
2017-12-13T04:03:25.870Z,2.99
2017-12-13T04:05:54.271Z,3.12
2017-12-13T04:08:23.528Z,3.12
2017-12-13T04:10:52.074Z,2.92
2017-12-13T04:13:20.538Z,2.98
2017-12-13T04:15:49.852Z,3.20
2017-12-13T04:18:18.331Z,3.30
2017-12-13T04:20:48.426Z,3.37
2017-12-13T04:23:17.619Z,3.40
2017-12-13T04:25:46.462Z,3.42
2017-12-13T04:28:14.993Z,3.16
2017-12-13T04:30:43.438Z,3.33
2017-12-13T04:33:12.069Z,3.17
2017-12-13T04:35:41.292Z,3.13
2017-12-13T04:38:09.836Z,3.04
2017-12-13T04:40:39.140Z,3.11
2017-12-13T04:43:08.440Z,3.18
2017-12-13T04:45:37.651Z,3.11
2017-12-13T04:48:07.298Z,3.28
2017-12-13T04:50:35.711Z,3.26
2017-12-13T04:53:04.192Z,3.15
2017-12-13T04:55:32.792Z,3.27
2017-12-13T04:58:01.202Z,3.11
2017-12-13T05:00:30.475Z,3.25
2017-12-13T05:02:58.971Z,3.35
2017-12-13T05:05:28.224Z,3.22
2017-12-13T05:07:56.742Z,3.20
2017-12-13T05:10:26.453Z,3.13
2017-12-13T05:12:55.073Z,3.36
2017-12-13T05:15:23.514Z,3.40
2017-12-13T05:17:51.996Z,3.48
2017-12-13T05:20:20.394Z,3.13
2017-12-13T05:22:49.543Z,3.30
2017-12-13T05:25:17.892Z,3.41
2017-12-13T05:27:46.314Z,3.46
2017-12-13T05:30:14.722Z,3.40
2017-12-13T05:32:43.502Z,3.45
2017-12-13T05:35:11.955Z,3.51
2017-12-13T05:37:40.440Z,3.29
2017-12-13T05:40:08.838Z,3.22
2017-12-13T05:42:37.330Z,3.41
2017-12-13T05:45:05.801Z,3.55
2017-12-13T05:47:34.411Z,3.45
2017-12-13T05:50:03.693Z,3.61
2017-12-13T05:52:32.181Z,3.68
2017-12-13T05:55:00.966Z,3.56
2017-12-13T05:57:29.446Z,3.56
2017-12-13T05:59:57.885Z,3.51
2017-12-13T06:02:28.194Z,3.55
2017-12-13T06:04:56.747Z,3.36
2017-12-13T06:07:26.390Z,3.33
2017-12-13T06:09:55.042Z,3.44
2017-12-13T06:12:24.547Z,3.50
2017-12-13T06:14:53.029Z,3.42
2017-12-13T06:17:21.692Z,3.45
2017-12-13T06:19:50.195Z,3.58
2017-12-13T06:22:18.610Z,3.32
2017-12-13T06:24:47.092Z,3.34
2017-12-13T06:27:15.605Z,3.41
2017-12-13T06:29:44.152Z,3.57
2017-12-13T06:32:12.598Z,3.51
2017-12-13T06:34:41.084Z,3.53
2017-12-13T06:37:09.568Z,3.48
2017-12-13T06:39:38.456Z,3.32
2017-12-13T06:42:06.936Z,3.28
2017-12-13T06:44:35.385Z,3.45
2017-12-13T06:47:03.838Z,3.48
2017-12-13T06:49:32.290Z,3.31
2017-12-13T06:52:01.475Z,3.35
2017-12-13T06:54:30.030Z,3.31
2017-12-13T06:56:58.391Z,3.51
2017-12-13T06:59:26.817Z,3.42
2017-12-13T07:01:56.015Z,3.25
2017-12-13T07:04:24.419Z,3.33
2017-12-13T07:06:53.622Z,3.22
2017-12-13T07:09:22.078Z,3.25
2017-12-13T07:11:50.455Z,3.08
2017-12-13T07:14:19.691Z,3.18
2017-12-13T07:16:48.039Z,3.46
2017-12-13T07:19:16.516Z,3.40
2017-12-13T07:21:44.995Z,3.45
2017-12-13T07:24:13.739Z,3.52
2017-12-13T07:26:42.156Z,3.41
2017-12-13T07:29:10.548Z,3.44
2017-12-13T07:31:39.026Z,3.53
2017-12-13T07:34:07.510Z,3.50
2017-12-13T07:36:35.991Z,3.44
2017-12-13T07:39:04.551Z,3.45
2017-12-13T07:41:33.670Z,3.55
2017-12-13T07:44:02.024Z,3.48
2017-12-13T07:46:30.730Z,3.42
2017-12-13T07:48:59.156Z,3.42
2017-12-13T07:51:27.524Z,3.57
2017-12-13T07:53:56.826Z,3.56
2017-12-13T07:56:25.447Z,3.70
2017-12-13T07:58:53.845Z,3.88
2017-12-13T08:01:22.252Z,4.13
2017-12-13T08:03:50.623Z,4.40
2017-12-13T08:06:19.109Z,4.39
2017-12-13T08:08:47.552Z,4.68
2017-12-13T08:11:16.084Z,4.11
2017-12-13T08:13:44.454Z,3.89
2017-12-13T08:16:13.748Z,4.00
2017-12-13T08:18:42.120Z,3.97
2017-12-13T08:21:10.500Z,4.75
2017-12-13T08:23:38.886Z,5.55
2017-12-13T08:26:08.198Z,5.34
2017-12-13T08:28:37.463Z,5.14
2017-12-13T08:31:06.474Z,5.05
2017-12-13T08:33:34.894Z,5.11
2017-12-13T08:36:03.412Z,5.56
2017-12-13T08:38:31.927Z,6.83
2017-12-13T08:41:00.313Z,7.92
2017-12-13T08:43:38.928Z,8.25
2017-12-13T08:46:07.385Z,8.80
2017-12-13T08:48:35.913Z,9.44
2017-12-13T08:51:04.887Z,10.16
2017-12-13T08:53:33.278Z,9.26
2017-12-13T08:56:01.651Z,9.76
2017-12-13T08:58:29.991Z,8.14
2017-12-13T09:00:58.402Z,8.72
2017-12-13T09:03:26.791Z,8.69
2017-12-13T09:05:56.001Z,8.59
2017-12-13T09:08:25.188Z,8.17
2017-12-13T09:10:54.482Z,8.32
2017-12-13T09:13:23.241Z,7.51
2017-12-13T09:15:51.660Z,7.55
2017-12-13T09:18:20.824Z,7.09
2017-12-13T09:20:49.234Z,6.09
2017-12-13T09:23:17.712Z,5.81
2017-12-13T09:25:46.079Z,5.63
2017-12-13T09:28:14.587Z,5.80
2017-12-13T09:30:43.858Z,5.81
2017-12-13T09:33:12.356Z,5.79
2017-12-13T09:35:40.902Z,6.73
2017-12-13T09:38:12.115Z,6.93
2017-12-13T09:40:40.550Z,7.32
2017-12-13T09:43:09.014Z,7.30
2017-12-13T09:45:37.544Z,8.28
2017-12-13T09:48:05.927Z,7.96
2017-12-13T09:50:34.726Z,8.71
2017-12-13T09:53:03.270Z,7.77
2017-12-13T09:55:32.498Z,8.19
2017-12-13T09:58:01.477Z,7.45
2017-12-13T10:00:29.958Z,8.24
2017-12-13T10:02:58.440Z,7.92
2017-12-13T10:05:27.643Z,8.80
2017-12-13T10:07:56.133Z,9.15
2017-12-13T10:10:24.566Z,9.45
2017-12-13T10:12:53.039Z,8.93
2017-12-13T10:15:21.484Z,8.79
2017-12-13T10:17:50.664Z,8.93
2017-12-13T10:20:19.445Z,8.99
2017-12-13T10:22:47.947Z,8.45
2017-12-13T10:25:17.225Z,8.39
2017-12-13T10:27:45.688Z,7.67
2017-12-13T10:30:14.127Z,7.29
2017-12-13T10:32:42.565Z,7.26
2017-12-13T10:35:11.043Z,6.64
2017-12-13T10:37:39.486Z,7.61
2017-12-13T10:40:08.016Z,7.47
2017-12-13T10:42:36.878Z,7.16
2017-12-13T10:45:05.288Z,7.63
2017-12-13T10:47:49.557Z,7.40
2017-12-13T10:50:18.723Z,7.22
2017-12-13T10:52:47.141Z,7.06
2017-12-13T10:55:16.317Z,7.31
2017-12-13T10:57:44.798Z,7.13
2017-12-13T11:00:13.263Z,7.13
2017-12-13T11:02:41.877Z,6.72
2017-12-13T11:05:11.168Z,5.95
2017-12-13T11:07:39.576Z,5.94
2017-12-13T11:10:09.027Z,6.04
2017-12-13T11:12:37.493Z,6.28
2017-12-13T11:15:05.932Z,6.21
2017-12-13T11:17:34.374Z,6.12
2017-12-13T11:20:02.782Z,6.51
2017-12-13T11:22:31.226Z,6.23
2017-12-13T11:24:59.866Z,6.24
2017-12-13T11:27:28.334Z,6.38
2017-12-13T11:29:56.709Z,6.51
2017-12-13T11:32:25.179Z,6.61
2017-12-13T11:34:53.561Z,6.78
2017-12-13T11:37:22.744Z,7.07
2017-12-13T11:39:51.265Z,7.08
2017-12-13T11:42:19.855Z,7.44
2017-12-13T11:44:49.147Z,7.04
2017-12-13T11:47:19.143Z,6.61
2017-12-13T11:49:47.638Z,6.38
2017-12-13T11:52:16.111Z,6.37
2017-12-13T11:54:47.575Z,6.40
2017-12-13T11:57:16.757Z,6.40
2017-12-13T11:59:45.217Z,6.24
2017-12-13T12:02:13.600Z,6.15
2017-12-13T12:04:42.066Z,6.13
2017-12-13T12:07:10.785Z,6.11
2017-12-13T12:09:39.483Z,6.08
2017-12-13T12:12:08.780Z,6.09
2017-12-13T12:14:38.091Z,6.04
2017-12-13T12:17:07.277Z,6.00
2017-12-13T12:19:36.171Z,5.96
2017-12-13T12:22:04.690Z,5.97
2017-12-13T12:24:34.364Z,5.95
2017-12-13T12:27:02.818Z,5.97
2017-12-13T12:29:31.324Z,5.92
2017-12-13T12:32:00.096Z,5.89
2017-12-13T12:34:28.559Z,5.86
2017-12-13T12:36:56.950Z,5.85
2017-12-13T12:39:26.282Z,5.34
2017-12-13T12:41:54.725Z,5.27
2017-12-13T12:44:23.152Z,5.08
2017-12-13T12:46:52.340Z,4.80
2017-12-13T12:49:20.814Z,4.99
2017-12-13T12:51:49.268Z,4.96
2017-12-13T12:54:18.289Z,4.92
2017-12-13T12:56:46.681Z,4.98
2017-12-13T12:59:15.137Z,4.88
2017-12-13T13:01:43.574Z,4.88
2017-12-13T13:04:12.022Z,5.05
2017-12-13T13:06:41.216Z,4.89
2017-12-13T13:09:09.796Z,4.97
2017-12-13T13:11:38.283Z,5.07
2017-12-13T13:14:07.478Z,5.23
2017-12-13T13:16:36.227Z,5.27
2017-12-13T13:19:04.617Z,5.01
2017-12-13T13:21:33.942Z,5.14
2017-12-13T13:24:02.427Z,5.05
2017-12-13T13:26:30.909Z,5.10
2017-12-13T13:28:59.370Z,4.81
2017-12-13T13:31:27.768Z,5.00
2017-12-13T13:33:56.170Z,4.80
2017-12-13T13:36:24.542Z,4.80
2017-12-13T13:38:53.065Z,4.85
2017-12-13T13:41:21.500Z,4.83
2017-12-13T13:43:50.620Z,4.94
2017-12-13T13:46:19.797Z,4.89
2017-12-13T13:48:51.107Z,4.98
2017-12-13T13:51:31.333Z,4.87
2017-12-13T13:53:59.753Z,4.83
2017-12-13T13:56:28.196Z,4.94
2017-12-13T13:58:57.079Z,5.00
2017-12-13T14:01:26.314Z,4.95
2017-12-13T14:03:54.729Z,4.77
2017-12-13T14:06:23.214Z,4.76
2017-12-13T14:08:51.599Z,4.79
2017-12-13T14:11:20.794Z,4.61
2017-12-13T14:13:49.192Z,4.62
2017-12-13T14:16:18.453Z,4.53
2017-12-13T14:18:46.921Z,4.74
2017-12-13T14:21:15.564Z,4.74
2017-12-13T14:23:43.912Z,4.81
2017-12-13T14:26:12.278Z,4.71
2017-12-13T14:28:40.710Z,4.71
2017-12-13T14:31:09.047Z,4.89
2017-12-13T14:33:37.430Z,4.78
2017-12-13T14:36:05.880Z,4.86
2017-12-13T14:38:34.289Z,4.70
2017-12-13T14:41:02.668Z,4.70
2017-12-13T14:43:31.445Z,4.62
2017-12-13T14:45:59.837Z,4.59
2017-12-13T14:48:28.307Z,4.63
2017-12-13T14:50:56.817Z,4.53
2017-12-13T14:53:25.892Z,4.72
2017-12-13T14:55:54.329Z,4.78
2017-12-13T14:58:22.861Z,4.80
2017-12-13T15:00:51.364Z,4.97
2017-12-13T15:03:20.515Z,4.97
2017-12-13T15:05:48.958Z,4.89
2017-12-13T15:08:33.173Z,4.85
2017-12-13T15:11:01.627Z,4.81
2017-12-13T15:13:29.975Z,4.74
2017-12-13T15:15:58.457Z,4.77
2017-12-13T15:18:26.873Z,4.73
2017-12-13T15:20:55.345Z,4.75
2017-12-13T15:23:23.678Z,4.74
2017-12-13T15:25:53.168Z,4.88
2017-12-13T15:28:21.658Z,5.15
2017-12-13T15:30:50.982Z,4.94
2017-12-13T15:33:19.455Z,4.80
2017-12-13T15:35:48.627Z,4.80
2017-12-13T15:38:17.007Z,4.74
2017-12-13T15:40:45.655Z,4.65
2017-12-13T15:43:14.110Z,4.68
2017-12-13T15:45:42.554Z,4.90
2017-12-13T15:48:11.238Z,4.73
2017-12-13T15:50:41.373Z,4.65
2017-12-13T15:53:09.831Z,4.74
2017-12-13T15:55:39.173Z,4.65
2017-12-13T15:58:08.380Z,4.74
2017-12-13T16:00:37.645Z,4.65
2017-12-13T16:03:06.018Z,4.74
2017-12-13T16:05:34.440Z,4.76
2017-12-13T16:08:02.824Z,4.81
2017-12-13T16:10:31.668Z,4.72
2017-12-13T16:13:00.048Z,4.85
2017-12-13T16:15:28.532Z,4.70
2017-12-13T16:17:57.752Z,4.56
2017-12-13T16:20:26.177Z,4.39
2017-12-13T16:22:54.567Z,4.50
2017-12-13T16:25:22.933Z,4.61
2017-12-13T16:27:51.320Z,4.73
2017-12-13T16:30:19.618Z,4.60
2017-12-13T16:32:48.420Z,4.49
2017-12-13T16:35:36.413Z,4.53
2017-12-13T16:38:04.771Z,4.49
2017-12-13T16:40:33.238Z,4.63
2017-12-13T16:43:02.518Z,4.33
2017-12-13T16:45:30.933Z,4.12
2017-12-13T16:47:59.488Z,4.11
2017-12-13T16:50:27.858Z,4.27
2017-12-13T16:52:56.748Z,4.37
2017-12-13T16:55:25.149Z,4.30
2017-12-13T16:57:54.436Z,4.33
2017-12-13T17:00:23.015Z,4.23
2017-12-13T17:02:51.495Z,4.18
2017-12-13T17:05:19.979Z,4.11
2017-12-13T17:07:48.488Z,4.16
2017-12-13T17:10:17.020Z,3.99
2017-12-13T17:12:45.525Z,4.12
2017-12-13T17:15:14.515Z,4.12
2017-12-13T17:17:43.052Z,4.19
2017-12-13T17:20:11.494Z,3.89
2017-12-13T17:22:39.873Z,4.10
2017-12-13T17:25:08.249Z,4.16
2017-12-13T17:27:36.720Z,3.92
2017-12-13T17:30:05.293Z,3.82
2017-12-13T17:32:33.788Z,3.93
2017-12-13T17:35:02.195Z,4.14
2017-12-13T17:37:30.876Z,3.98
2017-12-13T17:39:59.391Z,4.00
2017-12-13T17:42:28.639Z,3.98
2017-12-13T17:44:57.120Z,3.86
2017-12-13T17:47:25.593Z,3.94
2017-12-13T17:49:54.188Z,3.80
2017-12-13T17:52:22.686Z,3.68
2017-12-13T17:54:51.963Z,3.75
2017-12-13T17:57:20.356Z,3.89
2017-12-13T17:59:49.541Z,3.96
2017-12-13T18:02:17.888Z,3.88
2017-12-13T18:04:46.248Z,3.82
2017-12-13T18:07:14.788Z,3.82
2017-12-13T18:09:43.271Z,3.91
2017-12-13T18:12:11.671Z,3.78
2017-12-13T18:14:40.890Z,3.84
2017-12-13T18:17:09.431Z,3.98
2017-12-13T18:19:37.883Z,3.95
2017-12-13T18:22:06.755Z,4.00
2017-12-13T18:24:35.189Z,3.97
2017-12-13T18:27:12.292Z,3.93
2017-12-13T18:29:41.506Z,4.00
2017-12-13T18:32:09.872Z,4.17
2017-12-13T18:34:39.128Z,4.10
2017-12-13T18:37:08.346Z,4.10
2017-12-13T18:39:36.780Z,3.96
2017-12-13T18:42:05.498Z,4.17
2017-12-13T18:44:33.894Z,3.83
2017-12-13T18:47:02.478Z,3.98
2017-12-13T18:49:30.957Z,3.98
2017-12-13T18:51:59.445Z,4.09
2017-12-13T18:54:27.841Z,3.93
2017-12-13T18:56:57.022Z,3.87
2017-12-13T18:59:25.509Z,4.21
2017-12-13T19:01:53.905Z,4.16
2017-12-13T19:04:23.400Z,4.11
2017-12-13T19:06:51.888Z,3.89
2017-12-13T19:09:21.084Z,4.15
2017-12-13T19:11:49.540Z,4.11
2017-12-13T19:14:18.002Z,4.32
2017-12-13T19:16:52.463Z,4.45
2017-12-13T19:19:21.046Z,4.43
2017-12-13T19:21:49.492Z,4.17
2017-12-13T19:24:18.100Z,4.43
2017-12-13T19:26:46.688Z,4.40
2017-12-13T19:29:15.271Z,4.44
2017-12-13T19:31:43.738Z,4.54
2017-12-13T19:34:12.233Z,4.75
2017-12-13T19:36:40.822Z,4.72
2017-12-13T19:39:09.199Z,4.86
2017-12-13T19:41:38.405Z,4.49
2017-12-13T19:44:06.770Z,4.41
2017-12-13T19:46:35.566Z,4.70
2017-12-13T19:49:03.938Z,4.83
2017-12-13T19:51:32.282Z,4.90
2017-12-13T19:54:00.647Z,5.06
2017-12-13T19:56:28.983Z,5.00
2017-12-13T19:58:57.299Z,4.94
2017-12-13T20:01:25.674Z,4.92
2017-12-13T20:03:54.830Z,5.11
2017-12-13T20:06:23.141Z,4.92
2017-12-13T20:08:52.448Z,5.11
2017-12-13T20:11:20.762Z,4.98
2017-12-13T20:13:49.122Z,5.06
2017-12-13T20:16:17.534Z,5.08
2017-12-13T20:18:45.859Z,5.07
2017-12-13T20:21:14.953Z,5.23
2017-12-13T20:23:44.131Z,5.23
2017-12-13T20:26:12.453Z,5.25
2017-12-13T20:28:40.787Z,5.14
2017-12-13T20:31:09.588Z,5.16
2017-12-13T20:33:38.291Z,5.23
2017-12-13T20:36:06.795Z,5.14
2017-12-13T20:38:35.216Z,5.22
2017-12-13T20:41:03.532Z,5.28
2017-12-13T20:43:32.129Z,5.28
2017-12-13T20:46:00.590Z,5.24
2017-12-13T20:48:29.799Z,5.33
2017-12-13T20:50:58.196Z,5.38
2017-12-13T20:53:27.128Z,5.22
2017-12-13T20:55:55.607Z,5.29
2017-12-13T20:58:24.027Z,5.40
2017-12-13T21:00:53.121Z,5.53
2017-12-13T21:03:22.248Z,5.48
2017-12-13T21:05:50.607Z,5.35
2017-12-13T21:08:18.964Z,5.47
2017-12-13T21:10:48.079Z,5.58
2017-12-13T21:13:16.449Z,5.52
2017-12-13T21:15:45.803Z,5.21
2017-12-13T21:18:14.111Z,5.38
2017-12-13T21:20:42.418Z,5.18
2017-12-13T21:23:10.792Z,5.13
2017-12-13T21:25:39.893Z,5.21
2017-12-13T21:28:08.234Z,5.06
2017-12-13T21:30:36.620Z,5.08
2017-12-13T21:33:04.974Z,5.25
2017-12-13T21:35:33.339Z,5.22
2017-12-13T21:38:01.773Z,5.11
2017-12-13T21:40:30.891Z,5.12
2017-12-13T21:42:59.190Z,5.15
2017-12-13T21:45:27.606Z,5.38
2017-12-13T21:47:55.958Z,5.28
2017-12-13T21:50:24.296Z,5.44
2017-12-13T21:52:52.666Z,5.33
2017-12-13T21:55:21.760Z,5.36
2017-12-13T21:57:50.858Z,5.08
2017-12-13T22:00:20.231Z,5.43
2017-12-13T22:02:48.559Z,5.33
2017-12-13T22:05:28.775Z,5.34
2017-12-13T22:07:57.075Z,5.38
2017-12-13T22:10:26.126Z,5.51
2017-12-13T22:12:54.484Z,5.37
2017-12-13T22:15:22.795Z,5.43
2017-12-13T22:17:51.093Z,5.45
2017-12-13T22:20:19.646Z,5.20
2017-12-13T22:22:47.985Z,5.28
2017-12-13T22:25:16.373Z,5.30
2017-12-13T22:27:44.689Z,5.28
2017-12-13T22:30:13.842Z,5.33
2017-12-13T22:32:42.197Z,5.40
2017-12-13T22:35:10.526Z,5.54
2017-12-13T22:37:38.834Z,5.58
2017-12-13T22:40:07.140Z,5.39
2017-12-13T22:45:33.494Z,5.30
2017-12-13T22:48:02.189Z,5.35
2017-12-13T22:50:30.498Z,5.23
2017-12-13T22:52:58.799Z,5.34
2017-12-13T22:55:28.066Z,5.19
2017-12-13T22:57:56.415Z,5.32
2017-12-13T23:00:37.326Z,5.21
2017-12-13T23:03:05.918Z,5.43
2017-12-13T23:05:34.278Z,5.41
2017-12-13T23:08:02.628Z,5.27
2017-12-13T23:10:32.446Z,5.03
2017-12-13T23:13:00.785Z,4.98
2017-12-13T23:15:29.122Z,5.01
2017-12-13T23:17:57.440Z,4.94
2017-12-13T23:20:25.757Z,4.92
2017-12-13T23:22:55.747Z,4.91
2017-12-13T23:25:24.068Z,4.78
2017-12-13T23:27:52.486Z,4.67
2017-12-13T23:30:20.834Z,4.69
2017-12-13T23:32:49.146Z,4.50
2017-12-13T23:35:17.448Z,4.57
2017-12-13T23:37:46.181Z,4.61
2017-12-13T23:40:14.543Z,4.60
2017-12-13T23:42:42.846Z,4.63
2017-12-13T23:45:11.266Z,4.53
2017-12-13T23:47:40.331Z,4.27
2017-12-13T23:50:08.680Z,4.30
2017-12-13T23:52:37.092Z,4.31
2017-12-13T23:55:05.409Z,4.20
2017-12-13T23:57:33.715Z,3.99
